sensor_id;sensor_type;location;lat;lon;timestamp;pressure;altitude;pressure_sealevel;temperature;humidity
8416;BME280;4245;42.120;24.732;2023-04-21T00:01:00;98841.81;;;13.12;100.00
8416;BME280;4245;42.120;24.732;2023-04-21T00:03:28;98842.63;;;13.12;100.00
8416;BME280;4245;42.120;24.732;2023-04-21T00:05:56;98837.09;;;13.04;100.00
8416;BME280;4245;42.120;24.732;2023-04-21T00:08:25;98832.47;;;13.06;100.00
8416;BME280;4245;42.120;24.732;2023-04-21T00:10:52;98834.53;;;13.02;100.00
8416;BME280;4245;42.120;24.732;2023-04-21T00:13:19;98834.31;;;13.05;100.00
8416;BME280;4245;42.120;24.732;2023-04-21T00:15:46;98834.50;;;12.93;100.00
8416;BME280;4245;42.120;24.732;2023-04-21T00:18:12;98825.25;;;12.87;100.00
8416;BME280;4245;42.120;24.732;2023-04-21T00:20:39;98833.94;;;12.89;100.00
8416;BME280;4245;42.120;24.732;2023-04-21T00:23:07;98828.88;;;12.86;100.00
8416;BME280;4245;42.120;24.732;2023-04-21T00:25:36;98824.91;;;12.81;100.00
8416;BME280;4245;42.120;24.732;2023-04-21T00:28:03;98821.53;;;12.79;100.00
8416;BME280;4245;42.120;24.732;2023-04-21T00:30:30;98827.09;;;12.96;100.00
8416;BME280;4245;42.120;24.732;2023-04-21T00:32:57;98820.88;;;12.86;100.00
8416;BME280;4245;42.120;24.732;2023-04-21T00:35:24;98820.09;;;12.75;100.00
8416;BME280;4245;42.120;24.732;2023-04-21T00:37:51;98823.63;;;12.75;100.00
8416;BME280;4245;42.120;24.732;2023-04-21T00:40:18;98817.84;;;12.70;100.00
8416;BME280;4245;42.120;24.732;2023-04-21T00:42:46;98827.13;;;12.76;100.00
8416;BME280;4245;42.120;24.732;2023-04-21T00:45:13;98818.28;;;12.75;100.00
8416;BME280;4245;42.120;24.732;2023-04-21T00:47:40;98825.97;;;12.69;100.00
8416;BME280;4245;42.120;24.732;2023-04-21T00:50:08;98815.47;;;12.67;100.00
8416;BME280;4245;42.120;24.732;2023-04-21T00:52:36;98815.47;;;12.67;100.00
8416;BME280;4245;42.120;24.732;2023-04-21T00:55:05;98817.47;;;12.54;100.00
8416;BME280;4245;42.120;24.732;2023-04-21T00:57:35;98810.91;;;12.58;100.00
8416;BME280;4245;42.120;24.732;2023-04-21T01:00:04;98806.91;;;12.43;100.00
8416;BME280;4245;42.120;24.732;2023-04-21T01:02:34;98812.34;;;12.41;100.00
8416;BME280;4245;42.120;24.732;2023-04-21T01:05:04;98801.13;;;12.38;100.00
8416;BME280;4245;42.120;24.732;2023-04-21T01:07:33;98813.31;;;12.40;100.00
8416;BME280;4245;42.120;24.732;2023-04-21T01:10:00;98808.84;;;12.41;100.00
8416;BME280;4245;42.120;24.732;2023-04-21T01:12:28;98809.34;;;12.35;100.00
8416;BME280;4245;42.120;24.732;2023-04-21T01:14:55;98805.25;;;12.31;100.00
8416;BME280;4245;42.120;24.732;2023-04-21T01:17:24;98803.84;;;12.27;100.00
8416;BME280;4245;42.120;24.732;2023-04-21T01:19:52;98809.09;;;12.17;100.00
8416;BME280;4245;42.120;24.732;2023-04-21T01:22:23;98803.19;;;12.13;100.00
8416;BME280;4245;42.120;24.732;2023-04-21T01:24:51;98812.59;;;12.17;100.00
8416;BME280;4245;42.120;24.732;2023-04-21T01:27:19;98805.84;;;12.13;100.00
8416;BME280;4245;42.120;24.732;2023-04-21T01:29:48;98803.06;;;12.15;100.00
8416;BME280;4245;42.120;24.732;2023-04-21T01:32:17;98805.06;;;12.23;100.00
8416;BME280;4245;42.120;24.732;2023-04-21T01:34:44;98807.75;;;12.23;100.00
8416;BME280;4245;42.120;24.732;2023-04-21T01:37:14;98809.59;;;12.11;100.00
8416;BME280;4245;42.120;24.732;2023-04-21T01:39:44;98804.50;;;11.87;100.00
8416;BME280;4245;42.120;24.732;2023-04-21T01:42:12;98813.34;;;11.88;100.00
8416;BME280;4245;42.120;24.732;2023-04-21T01:44:39;98811.56;;;11.77;100.00
8416;BME280;4245;42.120;24.732;2023-04-21T01:47:06;98814.47;;;11.74;100.00
8416;BME280;4245;42.120;24.732;2023-04-21T01:49:33;98807.34;;;11.63;100.00
8416;BME280;4245;42.120;24.732;2023-04-21T01:52:00;98800.88;;;11.34;100.00
8416;BME280;4245;42.120;24.732;2023-04-21T01:54:27;98808.41;;;10.96;100.00
8416;BME280;4245;42.120;24.732;2023-04-21T01:56:55;98807.34;;;10.87;100.00
8416;BME280;4245;42.120;24.732;2023-04-21T01:59:22;98804.56;;;10.88;100.00
8416;BME280;4245;42.120;24.732;2023-04-21T02:01:49;98816.75;;;10.91;100.00
8416;BME280;4245;42.120;24.732;2023-04-21T02:04:16;98813.28;;;10.79;100.00
8416;BME280;4245;42.120;24.732;2023-04-21T02:06:43;98811.69;;;10.88;100.00
8416;BME280;4245;42.120;24.732;2023-04-21T02:09:10;98814.34;;;10.77;100.00
8416;BME280;4245;42.120;24.732;2023-04-21T02:11:37;98807.69;;;10.71;100.00
8416;BME280;4245;42.120;24.732;2023-04-21T02:14:05;98816.16;;;10.76;100.00
8416;BME280;4245;42.120;24.732;2023-04-21T02:16:32;98812.91;;;10.84;100.00
8416;BME280;4245;42.120;24.732;2023-04-21T02:18:59;98826.56;;;10.79;100.00
8416;BME280;4245;42.120;24.732;2023-04-21T02:21:27;98817.84;;;10.77;100.00
8416;BME280;4245;42.120;24.732;2023-04-21T02:23:54;98816.63;;;10.81;100.00
8416;BME280;4245;42.120;24.732;2023-04-21T02:26:21;98813.63;;;10.86;100.00
8416;BME280;4245;42.120;24.732;2023-04-21T02:28:48;98816.88;;;10.89;100.00
8416;BME280;4245;42.120;24.732;2023-04-21T02:31:17;98813.38;;;10.78;100.00
8416;BME280;4245;42.120;24.732;2023-04-21T02:33:44;98807.59;;;10.84;100.00
8416;BME280;4245;42.120;24.732;2023-04-21T02:36:11;98811.56;;;10.78;100.00
8416;BME280;4245;42.120;24.732;2023-04-21T02:38:38;98807.09;;;10.68;100.00
8416;BME280;4245;42.120;24.732;2023-04-21T02:41:05;98811.31;;;10.70;100.00
8416;BME280;4245;42.120;24.732;2023-04-21T02:43:32;98808.78;;;10.69;100.00
8416;BME280;4245;42.120;24.732;2023-04-21T02:45:58;98807.22;;;10.66;100.00
8416;BME280;4245;42.120;24.732;2023-04-21T02:48:27;98804.81;;;10.74;100.00
8416;BME280;4245;42.120;24.732;2023-04-21T02:50:54;98804.69;;;10.65;100.00
8416;BME280;4245;42.120;24.732;2023-04-21T02:53:21;98802.50;;;10.59;100.00
8416;BME280;4245;42.120;24.732;2023-04-21T02:55:47;98805.28;;;10.57;100.00
8416;BME280;4245;42.120;24.732;2023-04-21T02:58:14;98812.31;;;10.69;100.00
8416;BME280;4245;42.120;24.732;2023-04-21T03:00:41;98800.44;;;10.51;100.00
8416;BME280;4245;42.120;24.732;2023-04-21T03:03:08;98803.06;;;10.29;100.00
8416;BME280;4245;42.120;24.732;2023-04-21T03:05:37;98799.56;;;10.04;100.00
8416;BME280;4245;42.120;24.732;2023-04-21T03:08:04;98803.81;;;9.72;100.00
8416;BME280;4245;42.120;24.732;2023-04-21T03:10:31;98800.81;;;9.53;100.00
8416;BME280;4245;42.120;24.732;2023-04-21T03:12:57;98806.91;;;9.42;100.00
8416;BME280;4245;42.120;24.732;2023-04-21T03:15:24;98811.59;;;9.63;100.00
8416;BME280;4245;42.120;24.732;2023-04-21T03:17:51;98816.59;;;9.78;100.00
8416;BME280;4245;42.120;24.732;2023-04-21T03:20:18;98813.00;;;9.55;100.00
8416;BME280;4245;42.120;24.732;2023-04-21T03:22:47;98810.84;;;9.60;100.00
8416;BME280;4245;42.120;24.732;2023-04-21T03:25:14;98803.50;;;9.64;100.00
8416;BME280;4245;42.120;24.732;2023-04-21T03:27:41;98798.94;;;9.66;100.00
8416;BME280;4245;42.120;24.732;2023-04-21T03:30:09;98807.31;;;9.73;100.00
8416;BME280;4245;42.120;24.732;2023-04-21T03:32:36;98802.38;;;9.79;100.00
8416;BME280;4245;42.120;24.732;2023-04-21T03:35:03;98814.84;;;9.90;100.00
8416;BME280;4245;42.120;24.732;2023-04-21T03:37:30;98822.34;;;9.96;100.00
8416;BME280;4245;42.120;24.732;2023-04-21T03:39:58;98820.06;;;10.02;100.00
8416;BME280;4245;42.120;24.732;2023-04-21T03:42:25;98825.41;;;10.14;100.00
8416;BME280;4245;42.120;24.732;2023-04-21T03:44:54;98821.06;;;10.13;100.00
8416;BME280;4245;42.120;24.732;2023-04-21T03:47:21;98826.19;;;10.16;100.00
8416;BME280;4245;42.120;24.732;2023-04-21T03:49:48;98819.69;;;10.20;100.00
8416;BME280;4245;42.120;24.732;2023-04-21T03:52:14;98829.50;;;10.30;100.00
8416;BME280;4245;42.120;24.732;2023-04-21T03:54:41;98838.81;;;10.36;100.00
8416;BME280;4245;42.120;24.732;2023-04-21T03:57:10;98832.41;;;10.38;100.00
8416;BME280;4245;42.120;24.732;2023-04-21T03:59:37;98834.59;;;10.44;100.00
8416;BME280;4245;42.120;24.732;2023-04-21T04:02:04;98837.84;;;10.48;100.00
8416;BME280;4245;42.120;24.732;2023-04-21T04:04:31;98835.56;;;10.66;100.00
8416;BME280;4245;42.120;24.732;2023-04-21T04:06:58;98843.94;;;10.72;100.00
8416;BME280;4245;42.120;24.732;2023-04-21T04:09:25;98845.97;;;10.80;100.00
8416;BME280;4245;42.120;24.732;2023-04-21T04:11:51;98847.91;;;10.78;100.00
8416;BME280;4245;42.120;24.732;2023-04-21T04:14:20;98844.66;;;10.85;100.00
8416;BME280;4245;42.120;24.732;2023-04-21T04:16:47;98848.28;;;10.73;100.00
8416;BME280;4245;42.120;24.732;2023-04-21T04:19:13;98844.47;;;10.42;100.00
8416;BME280;4245;42.120;24.732;2023-04-21T04:21:40;98843.75;;;10.52;100.00
8416;BME280;4245;42.120;24.732;2023-04-21T04:24:07;98843.88;;;10.39;100.00
8416;BME280;4245;42.120;24.732;2023-04-21T04:26:36;98842.56;;;10.56;100.00
8416;BME280;4245;42.120;24.732;2023-04-21T04:29:04;98853.22;;;10.67;100.00
8416;BME280;4245;42.120;24.732;2023-04-21T04:31:36;98848.47;;;10.48;100.00
8416;BME280;4245;42.120;24.732;2023-04-21T04:34:03;98852.53;;;10.30;100.00
8416;BME280;4245;42.120;24.732;2023-04-21T04:36:31;98849.63;;;10.33;100.00
8416;BME280;4245;42.120;24.732;2023-04-21T04:38:58;98852.88;;;10.36;100.00
8416;BME280;4245;42.120;24.732;2023-04-21T04:41:25;98855.72;;;10.57;100.00
8416;BME280;4245;42.120;24.732;2023-04-21T04:43:52;98857.31;;;10.71;100.00
8416;BME280;4245;42.120;24.732;2023-04-21T04:46:19;98862.03;;;10.89;100.00
8416;BME280;4245;42.120;24.732;2023-04-21T04:48:47;98867.28;;;11.13;100.00
8416;BME280;4245;42.120;24.732;2023-04-21T04:51:14;98863.84;;;11.33;100.00
8416;BME280;4245;42.120;24.732;2023-04-21T04:53:41;98870.13;;;11.55;100.00
8416;BME280;4245;42.120;24.732;2023-04-21T04:56:08;98871.69;;;11.80;100.00
8416;BME280;4245;42.120;24.732;2023-04-21T04:58:35;98869.81;;;11.91;100.00
8416;BME280;4245;42.120;24.732;2023-04-21T05:01:10;98870.03;;;11.99;100.00
8416;BME280;4245;42.120;24.732;2023-04-21T05:03:37;98874.31;;;12.23;100.00
8416;BME280;4245;42.120;24.732;2023-04-21T05:06:06;98880.28;;;12.36;100.00
8416;BME280;4245;42.120;24.732;2023-04-21T05:08:33;98881.34;;;12.65;100.00
8416;BME280;4245;42.120;24.732;2023-04-21T05:11:00;98883.50;;;12.71;100.00
8416;BME280;4245;42.120;24.732;2023-04-21T05:13:27;98893.53;;;12.88;100.00
8416;BME280;4245;42.120;24.732;2023-04-21T05:15:56;98887.97;;;12.91;100.00
8416;BME280;4245;42.120;24.732;2023-04-21T05:18:23;98888.28;;;13.19;100.00
8416;BME280;4245;42.120;24.732;2023-04-21T05:20:50;98896.19;;;13.30;100.00
8416;BME280;4245;42.120;24.732;2023-04-21T05:23:18;98888.19;;;13.30;100.00
8416;BME280;4245;42.120;24.732;2023-04-21T05:25:45;98902.31;;;13.61;100.00
8416;BME280;4245;42.120;24.732;2023-04-21T05:28:12;98890.75;;;13.90;100.00
8416;BME280;4245;42.120;24.732;2023-04-21T05:30:39;98892.75;;;13.98;100.00
8416;BME280;4245;42.120;24.732;2023-04-21T05:33:06;98891.19;;;14.05;100.00
8416;BME280;4245;42.120;24.732;2023-04-21T05:35:34;98897.13;;;14.28;100.00
8416;BME280;4245;42.120;24.732;2023-04-21T05:38:01;98895.56;;;14.35;100.00
8416;BME280;4245;42.120;24.732;2023-04-21T05:40:29;98898.16;;;14.37;100.00
8416;BME280;4245;42.120;24.732;2023-04-21T05:42:56;98894.91;;;14.52;100.00
8416;BME280;4245;42.120;24.732;2023-04-21T05:45:23;98886.88;;;14.71;100.00
8416;BME280;4245;42.120;24.732;2023-04-21T05:47:50;98889.75;;;14.97;100.00
8416;BME280;4245;42.120;24.732;2023-04-21T05:50:17;98884.56;;;15.05;100.00
8416;BME280;4245;42.120;24.732;2023-04-21T05:52:44;98886.88;;;15.18;100.00
8416;BME280;4245;42.120;24.732;2023-04-21T05:55:11;98883.28;;;15.37;100.00
8416;BME280;4245;42.120;24.732;2023-04-21T05:57:39;98890.41;;;15.55;100.00
8416;BME280;4245;42.120;24.732;2023-04-21T06:00:07;98881.91;;;15.70;100.00
8416;BME280;4245;42.120;24.732;2023-04-21T06:02:34;98881.63;;;15.90;100.00
8416;BME280;4245;42.120;24.732;2023-04-21T06:05:01;98876.47;;;16.06;100.00
8416;BME280;4245;42.120;24.732;2023-04-21T06:07:28;98882.88;;;16.14;83.27
8416;BME280;4245;42.120;24.732;2023-04-21T06:09:54;98875.81;;;16.13;74.85
8416;BME280;4245;42.120;24.732;2023-04-21T06:12:22;98900.25;;;16.27;72.94
8416;BME280;4245;42.120;24.732;2023-04-21T06:14:50;98879.22;;;16.15;70.80
8416;BME280;4245;42.120;24.732;2023-04-21T06:17:17;98870.41;;;16.22;71.93
8416;BME280;4245;42.120;24.732;2023-04-21T06:19:43;98877.09;;;16.36;70.89
8416;BME280;4245;42.120;24.732;2023-04-21T06:22:10;98872.00;;;16.68;69.86
8416;BME280;4245;42.120;24.732;2023-04-21T06:24:37;98874.31;;;16.63;69.56
8416;BME280;4245;42.120;24.732;2023-04-21T06:27:09;98874.00;;;16.66;67.59
8416;BME280;4245;42.120;24.732;2023-04-21T06:29:36;98881.09;;;16.93;66.53
8416;BME280;4245;42.120;24.732;2023-04-21T06:32:04;98863.25;;;16.84;66.69
8416;BME280;4245;42.120;24.732;2023-04-21T06:34:31;98871.84;;;17.13;65.33
8416;BME280;4245;42.120;24.732;2023-04-21T06:36:57;98872.94;;;17.03;64.13
8416;BME280;4245;42.120;24.732;2023-04-21T06:39:24;98841.47;;;16.87;65.48
8416;BME280;4245;42.120;24.732;2023-04-21T06:41:51;98855.97;;;17.28;65.15
8416;BME280;4245;42.120;24.732;2023-04-21T06:46:53;98861.72;;;17.33;63.19
8416;BME280;4245;42.120;24.732;2023-04-21T06:49:21;98867.91;;;17.67;62.62
8416;BME280;4245;42.120;24.732;2023-04-21T06:51:48;98838.41;;;17.42;62.61
8416;BME280;4245;42.120;24.732;2023-04-21T06:54:14;98892.97;;;17.42;62.36
8416;BME280;4245;42.120;24.732;2023-04-21T06:56:41;98861.50;;;17.26;62.61
8416;BME280;4245;42.120;24.732;2023-04-21T06:59:08;98885.56;;;17.70;61.45
8416;BME280;4245;42.120;24.732;2023-04-21T07:01:35;98867.03;;;17.59;61.29
8416;BME280;4245;42.120;24.732;2023-04-21T07:04:02;98867.94;;;17.75;61.33
8416;BME280;4245;42.120;24.732;2023-04-21T07:06:31;98876.78;;;18.26;59.58
8416;BME280;4245;42.120;24.732;2023-04-21T07:08:58;98859.50;;;18.45;59.23
8416;BME280;4245;42.120;24.732;2023-04-21T07:11:25;98869.28;;;18.62;58.84
8416;BME280;4245;42.120;24.732;2023-04-21T07:13:53;98878.03;;;18.80;58.84
8416;BME280;4245;42.120;24.732;2023-04-21T07:16:20;98882.72;;;19.02;57.53
8416;BME280;4245;42.120;24.732;2023-04-21T07:18:46;98883.22;;;18.90;58.07
8416;BME280;4245;42.120;24.732;2023-04-21T07:21:13;98879.00;;;19.12;57.21
8416;BME280;4245;42.120;24.732;2023-04-21T07:23:41;98868.44;;;18.86;58.21
8416;BME280;4245;42.120;24.732;2023-04-21T07:26:08;98873.78;;;19.10;57.50
8416;BME280;4245;42.120;24.732;2023-04-21T07:28:36;98871.09;;;19.10;57.64
8416;BME280;4245;42.120;24.732;2023-04-21T07:31:03;98864.84;;;19.26;57.95
8416;BME280;4245;42.120;24.732;2023-04-21T07:33:29;98876.84;;;19.62;56.99
8416;BME280;4245;42.120;24.732;2023-04-21T07:35:56;98874.88;;;19.40;55.22
8416;BME280;4245;42.120;24.732;2023-04-21T07:38:23;98878.28;;;19.18;56.96
8416;BME280;4245;42.120;24.732;2023-04-21T07:40:51;98869.13;;;19.59;55.76
8416;BME280;4245;42.120;24.732;2023-04-21T07:43:19;98858.56;;;19.80;55.67
8416;BME280;4245;42.120;24.732;2023-04-21T07:45:45;98868.53;;;19.72;55.33
8416;BME280;4245;42.120;24.732;2023-04-21T07:48:12;98866.75;;;19.56;55.87
8416;BME280;4245;42.120;24.732;2023-04-21T07:50:39;98877.44;;;19.17;56.52
8416;BME280;4245;42.120;24.732;2023-04-21T07:53:06;98852.31;;;18.78;58.21
8416;BME280;4245;42.120;24.732;2023-04-21T07:55:33;98854.94;;;19.10;57.72
8416;BME280;4245;42.120;24.732;2023-04-21T07:58:03;98865.16;;;19.31;57.44
8416;BME280;4245;42.120;24.732;2023-04-21T08:00:29;98869.25;;;18.94;58.00
8416;BME280;4245;42.120;24.732;2023-04-21T08:02:56;98870.22;;;19.18;56.50
8416;BME280;4245;42.120;24.732;2023-04-21T08:05:23;98885.00;;;19.46;56.07
8416;BME280;4245;42.120;24.732;2023-04-21T08:07:50;98867.28;;;19.60;55.01
8416;BME280;4245;42.120;24.732;2023-04-21T08:10:18;98868.66;;;19.47;55.59
8416;BME280;4245;42.120;24.732;2023-04-21T08:12:44;98853.53;;;19.77;54.86
8416;BME280;4245;42.120;24.732;2023-04-21T08:15:13;98877.41;;;19.88;54.20
8416;BME280;4245;42.120;24.732;2023-04-21T08:17:39;98861.16;;;19.66;53.39
8416;BME280;4245;42.120;24.732;2023-04-21T08:20:07;98863.41;;;19.93;54.00
8416;BME280;4245;42.120;24.732;2023-04-21T08:22:34;98844.78;;;20.29;53.19
8416;BME280;4245;42.120;24.732;2023-04-21T08:25:02;98876.28;;;20.59;49.52
8416;BME280;4245;42.120;24.732;2023-04-21T08:27:29;98842.75;;;20.08;50.64
8416;BME280;4245;42.120;24.732;2023-04-21T08:29:55;98846.84;;;20.50;49.16
8416;BME280;4245;42.120;24.732;2023-04-21T08:32:24;98851.94;;;21.05;47.42
8416;BME280;4245;42.120;24.732;2023-04-21T08:34:51;98850.75;;;21.51;46.76
8416;BME280;4245;42.120;24.732;2023-04-21T08:37:19;98844.72;;;22.00;44.77
8416;BME280;4245;42.120;24.732;2023-04-21T08:39:47;98848.66;;;21.97;44.53
8416;BME280;4245;42.120;24.732;2023-04-21T08:42:16;98845.78;;;22.41;43.80
8416;BME280;4245;42.120;24.732;2023-04-21T08:44:43;98839.78;;;22.67;43.22
8416;BME280;4245;42.120;24.732;2023-04-21T08:47:11;98852.66;;;22.80;41.06
8416;BME280;4245;42.120;24.732;2023-04-21T08:49:41;98848.72;;;22.04;43.15
8416;BME280;4245;42.120;24.732;2023-04-21T08:52:10;98836.78;;;22.34;43.79
8416;BME280;4245;42.120;24.732;2023-04-21T08:54:38;98841.66;;;22.67;41.83
8416;BME280;4245;42.120;24.732;2023-04-21T08:57:06;98840.97;;;22.79;41.56
8416;BME280;4245;42.120;24.732;2023-04-21T08:59:32;98834.19;;;22.69;40.96
8416;BME280;4245;42.120;24.732;2023-04-21T09:02:07;98839.47;;;22.77;41.45
8416;BME280;4245;42.120;24.732;2023-04-21T09:04:34;98836.50;;;22.93;40.73
8416;BME280;4245;42.120;24.732;2023-04-21T09:07:04;98839.22;;;23.27;40.66
8416;BME280;4245;42.120;24.732;2023-04-21T09:09:33;98834.44;;;23.64;38.57
8416;BME280;4245;42.120;24.732;2023-04-21T09:12:00;98820.34;;;23.81;38.40
8416;BME280;4245;42.120;24.732;2023-04-21T09:14:33;98822.63;;;24.52;37.55
8416;BME280;4245;42.120;24.732;2023-04-21T09:17:01;98827.84;;;24.47;36.92
8416;BME280;4245;42.120;24.732;2023-04-21T09:19:28;98823.88;;;24.82;36.76
8416;BME280;4245;42.120;24.732;2023-04-21T09:21:55;98826.59;;;25.22;35.55
8416;BME280;4245;42.120;24.732;2023-04-21T09:24:24;98810.91;;;24.64;36.07
8416;BME280;4245;42.120;24.732;2023-04-21T09:26:51;98811.13;;;24.43;36.14
8416;BME280;4245;42.120;24.732;2023-04-21T09:29:21;98804.44;;;24.52;35.57
8416;BME280;4245;42.120;24.732;2023-04-21T09:31:48;98801.31;;;24.75;35.43
8416;BME280;4245;42.120;24.732;2023-04-21T09:34:17;98801.84;;;24.11;36.80
8416;BME280;4245;42.120;24.732;2023-04-21T09:36:45;98794.75;;;24.10;36.18
8416;BME280;4245;42.120;24.732;2023-04-21T09:39:12;98796.06;;;24.28;35.99
8416;BME280;4245;42.120;24.732;2023-04-21T09:41:42;98794.41;;;24.66;35.99
8416;BME280;4245;42.120;24.732;2023-04-21T09:44:09;98783.34;;;24.94;35.81
8416;BME280;4245;42.120;24.732;2023-04-21T09:46:36;98784.59;;;25.11;34.91
8416;BME280;4245;42.120;24.732;2023-04-21T09:49:03;98781.06;;;24.58;34.67
8416;BME280;4245;42.120;24.732;2023-04-21T09:51:30;98779.41;;;23.70;36.60
8416;BME280;4245;42.120;24.732;2023-04-21T09:53:59;98781.94;;;23.71;36.77
8416;BME280;4245;42.120;24.732;2023-04-21T09:56:29;98785.25;;;23.67;36.63
8416;BME280;4245;42.120;24.732;2023-04-21T09:59:00;98778.94;;;23.60;36.87
8416;BME280;4245;42.120;24.732;2023-04-21T10:01:28;98783.19;;;23.82;36.73
8416;BME280;4245;42.120;24.732;2023-04-21T10:03:56;98791.63;;;23.46;36.80
8416;BME280;4245;42.120;24.732;2023-04-21T10:06:24;98758.38;;;22.96;38.13
8416;BME280;4245;42.120;24.732;2023-04-21T10:08:51;98770.97;;;23.45;37.66
8416;BME280;4245;42.120;24.732;2023-04-21T10:11:21;98765.31;;;24.07;36.23
8416;BME280;4245;42.120;24.732;2023-04-21T10:13:48;98765.59;;;24.78;35.79
8416;BME280;4245;42.120;24.732;2023-04-21T10:16:17;98764.56;;;25.63;33.84
8416;BME280;4245;42.120;24.732;2023-04-21T10:18:46;98754.06;;;26.43;32.94
8416;BME280;4245;42.120;24.732;2023-04-21T10:21:16;98756.31;;;26.95;32.53
8416;BME280;4245;42.120;24.732;2023-04-21T10:23:47;98761.81;;;26.64;31.20
8416;BME280;4245;42.120;24.732;2023-04-21T10:26:19;98747.97;;;26.65;30.96
8416;BME280;4245;42.120;24.732;2023-04-21T10:28:52;98752.28;;;26.98;30.55
8416;BME280;4245;42.120;24.732;2023-04-21T10:31:31;98744.63;;;27.49;29.33
8416;BME280;4245;42.120;24.732;2023-04-21T10:34:18;98746.84;;;26.73;29.91
8416;BME280;4245;42.120;24.732;2023-04-21T10:39:33;98739.66;;;26.78;30.83
8416;BME280;4245;42.120;24.732;2023-04-21T10:42:25;98759.59;;;27.04;28.74
8416;BME280;4245;42.120;24.732;2023-04-21T10:44:59;98742.06;;;25.81;31.02
8416;BME280;4245;42.120;24.732;2023-04-21T10:47:35;98747.50;;;25.81;32.19
8416;BME280;4245;42.120;24.732;2023-04-21T10:50:17;98732.34;;;26.29;31.53
8416;BME280;4245;42.120;24.732;2023-04-21T10:52:48;98736.63;;;27.11;31.13
8416;BME280;4245;42.120;24.732;2023-04-21T10:55:17;98746.63;;;28.32;29.45
8416;BME280;4245;42.120;24.732;2023-04-21T10:57:45;98738.59;;;28.60;28.87
8416;BME280;4245;42.120;24.732;2023-04-21T11:00:17;98742.63;;;29.16;27.31
8416;BME280;4245;42.120;24.732;2023-04-21T11:02:56;98754.91;;;28.90;26.68
8416;BME280;4245;42.120;24.732;2023-04-21T11:05:28;98739.72;;;27.99;27.78
8416;BME280;4245;42.120;24.732;2023-04-21T11:08:02;98742.00;;;28.02;27.52
8416;BME280;4245;42.120;24.732;2023-04-21T11:10:43;98737.94;;;27.63;27.82
8416;BME280;4245;42.120;24.732;2023-04-21T11:13:11;98738.06;;;27.69;28.02
8416;BME280;4245;42.120;24.732;2023-04-21T11:15:37;98731.53;;;27.99;27.46
8416;BME280;4245;42.120;24.732;2023-04-21T11:18:06;98730.34;;;27.65;27.16
8416;BME280;4245;42.120;24.732;2023-04-21T11:20:33;98736.56;;;28.56;27.29
8416;BME280;4245;42.120;24.732;2023-04-21T11:23:00;98730.69;;;28.29;25.40
8416;BME280;4245;42.120;24.732;2023-04-21T11:25:27;98735.25;;;27.75;27.69
8416;BME280;4245;42.120;24.732;2023-04-21T11:27:56;98738.44;;;26.99;29.90
8416;BME280;4245;42.120;24.732;2023-04-21T11:30:30;98735.00;;;28.06;29.52
8416;BME280;4245;42.120;24.732;2023-04-21T11:32:58;98739.75;;;29.34;27.67
8416;BME280;4245;42.120;24.732;2023-04-21T11:35:26;98742.78;;;30.46;26.33
8416;BME280;4245;42.120;24.732;2023-04-21T11:37:54;98748.59;;;31.38;24.92
8416;BME280;4245;42.120;24.732;2023-04-21T11:40:21;98754.41;;;30.86;25.07
8416;BME280;4245;42.120;24.732;2023-04-21T11:42:48;98749.88;;;30.13;25.12
8416;BME280;4245;42.120;24.732;2023-04-21T11:45:16;98743.19;;;29.53;26.81
8416;BME280;4245;42.120;24.732;2023-04-21T11:47:43;98743.31;;;29.46;27.15
8416;BME280;4245;42.120;24.732;2023-04-21T11:50:10;98743.94;;;29.76;27.00
8416;BME280;4245;42.120;24.732;2023-04-21T11:52:39;98735.16;;;29.63;27.63
8416;BME280;4245;42.120;24.732;2023-04-21T11:55:11;98735.97;;;29.35;29.36
8416;BME280;4245;42.120;24.732;2023-04-21T11:57:40;98748.72;;;29.69;29.17
8416;BME280;4245;42.120;24.732;2023-04-21T12:00:09;98744.66;;;30.29;27.79
8416;BME280;4245;42.120;24.732;2023-04-21T12:02:37;98747.09;;;30.92;26.82
8416;BME280;4245;42.120;24.732;2023-04-21T12:05:06;98746.44;;;31.40;25.92
8416;BME280;4245;42.120;24.732;2023-04-21T12:07:35;98744.19;;;32.29;25.12
8416;BME280;4245;42.120;24.732;2023-04-21T12:10:08;98750.50;;;33.30;24.33
8416;BME280;4245;42.120;24.732;2023-04-21T12:12:36;98743.31;;;32.23;24.16
8416;BME280;4245;42.120;24.732;2023-04-21T12:15:04;98735.09;;;32.60;23.57
8416;BME280;4245;42.120;24.732;2023-04-21T12:17:36;98732.69;;;32.64;24.39
8416;BME280;4245;42.120;24.732;2023-04-21T12:20:04;98743.22;;;31.91;23.80
8416;BME280;4245;42.120;24.732;2023-04-21T12:22:31;98736.41;;;30.12;25.66
8416;BME280;4245;42.120;24.732;2023-04-21T12:24:58;98735.91;;;29.58;27.02
8416;BME280;4245;42.120;24.732;2023-04-21T12:27:27;98739.41;;;29.82;26.45
8416;BME280;4245;42.120;24.732;2023-04-21T12:29:53;98735.66;;;29.88;26.12
8416;BME280;4245;42.120;24.732;2023-04-21T12:32:21;98736.50;;;29.60;25.65
8416;BME280;4245;42.120;24.732;2023-04-21T12:34:48;98729.88;;;29.45;26.34
8416;BME280;4245;42.120;24.732;2023-04-21T12:37:15;98734.59;;;30.17;25.45
8416;BME280;4245;42.120;24.732;2023-04-21T12:39:42;98731.34;;;30.49;24.75
8416;BME280;4245;42.120;24.732;2023-04-21T12:42:09;98734.13;;;30.87;24.22
8416;BME280;4245;42.120;24.732;2023-04-21T12:44:37;98737.91;;;30.48;24.98
8416;BME280;4245;42.120;24.732;2023-04-21T12:47:05;98751.44;;;30.26;25.32
8416;BME280;4245;42.120;24.732;2023-04-21T12:49:32;98731.81;;;30.46;25.57
8416;BME280;4245;42.120;24.732;2023-04-21T12:51:58;98740.16;;;30.22;26.40
8416;BME280;4245;42.120;24.732;2023-04-21T12:54:25;98726.28;;;30.57;26.28
8416;BME280;4245;42.120;24.732;2023-04-21T12:56:52;98724.91;;;30.93;26.13
8416;BME280;4245;42.120;24.732;2023-04-21T12:59:19;98720.25;;;31.11;25.68
8416;BME280;4245;42.120;24.732;2023-04-21T13:01:47;98717.31;;;31.00;25.53
8416;BME280;4245;42.120;24.732;2023-04-21T13:04:14;98720.75;;;30.91;25.70
8416;BME280;4245;42.120;24.732;2023-04-21T13:06:41;98719.34;;;31.05;25.97
8416;BME280;4245;42.120;24.732;2023-04-21T13:09:08;98712.69;;;31.23;25.85
8416;BME280;4245;42.120;24.732;2023-04-21T13:11:35;98703.13;;;31.47;25.24
8416;BME280;4245;42.120;24.732;2023-04-21T13:14:02;98707.97;;;31.83;25.29
8416;BME280;4245;42.120;24.732;2023-04-21T13:16:29;98708.28;;;32.41;25.25